createdAt,value
2022-10-02T00:00:55.310Z,4.50
2022-10-02T00:03:25.420Z,4.32
2022-10-02T00:05:54.881Z,4.13
2022-10-02T00:08:28.183Z,3.70
2022-10-02T00:11:02.482Z,4.45
2022-10-02T00:13:32.440Z,4.97
2022-10-02T00:16:01.571Z,3.63
2022-10-02T00:18:34.168Z,4.65
2022-10-02T00:21:19.703Z,4.55
2022-10-02T00:23:49.894Z,4.75
2022-10-02T00:26:29.780Z,4.35
2022-10-02T00:29:06.281Z,3.63
2022-10-02T00:31:33.470Z,3.70
2022-10-02T00:34:14.383Z,3.58
2022-10-02T00:36:51.639Z,3.33
2022-10-02T00:39:33.437Z,3.85
2022-10-02T00:42:12.731Z,4.05
2022-10-02T00:44:47.063Z,4.07
2022-10-02T00:47:37.664Z,4.50
2022-10-02T00:50:15.895Z,4.50
2022-10-02T00:52:43.230Z,5.85
2022-10-02T00:55:10.423Z,5.00
2022-10-02T00:57:54.774Z,4.78
2022-10-02T01:00:23.439Z,3.80
2022-10-02T01:02:53.912Z,4.20
2022-10-02T01:05:21.598Z,3.90
2022-10-02T01:07:50.881Z,3.40
2022-10-02T01:10:18.193Z,3.05
2022-10-02T01:12:45.795Z,3.50
2022-10-02T01:15:14.096Z,3.13
2022-10-02T01:17:42.125Z,3.22
2022-10-02T01:20:17.275Z,3.60
2022-10-02T01:22:52.955Z,2.92
2022-10-02T01:25:20.291Z,3.60
2022-10-02T01:27:47.777Z,3.15
2022-10-02T01:30:18.004Z,3.45
2022-10-02T01:32:48.957Z,3.58
2022-10-02T01:35:16.284Z,3.75
2022-10-02T01:37:44.593Z,3.55
2022-10-02T01:40:23.505Z,3.70
2022-10-02T01:42:51.063Z,3.78
2022-10-02T01:45:18.323Z,3.95
2022-10-02T01:48:05.754Z,4.03
2022-10-02T01:50:45.123Z,3.78
2022-10-02T01:53:20.930Z,3.67
2022-10-02T01:55:48.067Z,3.10
2022-10-02T01:58:29.695Z,3.15
2022-10-02T02:01:17.436Z,3.50
2022-10-02T02:03:56.677Z,3.45
2022-10-02T02:06:33.116Z,4.25
2022-10-02T02:09:05.161Z,3.45
2022-10-02T02:11:32.552Z,3.90
2022-10-02T02:14:15.208Z,3.45
2022-10-02T02:16:43.711Z,3.50
2022-10-02T02:19:29.918Z,3.90
2022-10-02T02:22:09.129Z,3.65
2022-10-02T02:24:42.010Z,4.40
2022-10-02T02:27:11.530Z,4.50
2022-10-02T02:29:39.981Z,4.80
2022-10-02T02:32:09.297Z,4.63
2022-10-02T02:34:40.709Z,4.88
2022-10-02T02:37:11.745Z,4.97
2022-10-02T02:39:46.082Z,5.05
2022-10-02T02:42:17.663Z,4.95
2022-10-02T02:44:49.675Z,6.53
2022-10-02T02:47:26.822Z,6.03
2022-10-02T02:49:56.509Z,6.00
2022-10-02T02:52:28.649Z,5.60
2022-10-02T02:54:59.850Z,5.45
2022-10-02T02:57:33.192Z,6.00
2022-10-02T03:00:01.586Z,6.43
2022-10-02T03:02:28.974Z,7.07
2022-10-02T03:04:56.136Z,6.97
2022-10-02T03:07:23.339Z,6.30
2022-10-02T03:09:56.371Z,8.25
2022-10-02T03:12:33.084Z,7.32
2022-10-02T03:15:09.290Z,7.68
2022-10-02T03:17:36.442Z,7.85
2022-10-02T03:20:04.450Z,9.63
2022-10-02T03:22:36.560Z,7.50
2022-10-02T03:25:11.237Z,6.40
2022-10-02T03:27:43.930Z,7.85
2022-10-02T03:30:12.714Z,6.50
2022-10-02T03:32:40.891Z,7.05
2022-10-02T03:35:11.605Z,6.45
2022-10-02T03:37:40.007Z,5.95
2022-10-02T03:40:07.616Z,5.80
2022-10-02T03:42:36.024Z,5.18
2022-10-02T03:45:03.622Z,4.60
2022-10-02T03:47:30.882Z,5.03
2022-10-02T03:49:58.024Z,4.65
2022-10-02T03:52:25.216Z,4.43
2022-10-02T03:54:57.821Z,5.20
2022-10-02T03:57:26.113Z,5.20
2022-10-02T04:00:05.255Z,5.53
2022-10-02T04:02:38.647Z,7.47
2022-10-02T04:05:20.326Z,8.30
2022-10-02T04:07:52.805Z,9.45
2022-10-02T04:10:23.743Z,13.60
2022-10-02T04:12:52.351Z,12.98
2022-10-02T04:15:22.685Z,8.40
2022-10-02T04:17:55.718Z,7.25
2022-10-02T04:20:27.500Z,6.82
2022-10-02T04:23:01.510Z,6.18
2022-10-02T04:25:30.786Z,6.53
2022-10-02T04:27:59.568Z,6.07
2022-10-02T04:30:26.928Z,7.38
2022-10-02T04:32:54.760Z,5.60
2022-10-02T04:35:34.217Z,6.85
2022-10-02T04:38:04.336Z,6.43
2022-10-02T04:40:50.623Z,6.25
2022-10-02T04:43:20.832Z,6.50
2022-10-02T04:46:03.482Z,6.78
2022-10-02T04:48:37.170Z,7.05
2022-10-02T04:53:31.650Z,6.97
2022-10-02T04:56:04.841Z,8.63
2022-10-02T04:58:50.884Z,10.13
2022-10-02T05:01:24.184Z,8.75
2022-10-02T05:04:06.334Z,10.50
2022-10-02T05:06:52.330Z,13.90
2022-10-02T05:09:41.423Z,17.85
2022-10-02T05:12:15.775Z,16.23
2022-10-02T05:15:04.338Z,16.30
2022-10-02T05:17:50.041Z,15.98
2022-10-02T05:20:23.607Z,26.05
2022-10-02T05:25:18.036Z,12.50
2022-10-02T05:27:56.550Z,9.18
2022-10-02T05:30:23.935Z,14.30
2022-10-02T05:33:09.943Z,16.58
2022-10-02T05:35:51.214Z,8.13
2022-10-02T05:38:36.885Z,7.18
2022-10-02T05:41:05.550Z,6.72
2022-10-02T05:43:32.711Z,6.32
2022-10-02T05:46:02.575Z,7.28
2022-10-02T05:48:39.135Z,8.05
2022-10-02T05:51:11.719Z,9.00
2022-10-02T05:53:47.385Z,9.40
2022-10-02T05:56:18.822Z,7.22
2022-10-02T05:58:45.928Z,6.72
2022-10-02T06:01:17.886Z,7.63
2022-10-02T06:03:49.113Z,8.43
2022-10-02T06:06:16.494Z,7.47
2022-10-02T06:09:02.763Z,8.23
2022-10-02T06:11:30.406Z,10.63
2022-10-02T06:13:57.589Z,9.30
2022-10-02T06:16:29.195Z,7.47
2022-10-02T06:19:05.510Z,7.38
2022-10-02T06:21:34.859Z,7.38
2022-10-02T06:24:05.206Z,10.10
2022-10-02T06:26:35.768Z,8.52
2022-10-02T06:29:23.655Z,9.38
2022-10-02T06:32:07.058Z,11.15
2022-10-02T06:34:34.202Z,12.45
2022-10-02T06:37:20.163Z,12.05
2022-10-02T06:40:01.137Z,10.52
2022-10-02T06:42:38.225Z,14.65
2022-10-02T06:45:19.651Z,11.70
2022-10-02T06:47:57.661Z,14.63
2022-10-02T06:50:30.553Z,16.88
2022-10-02T06:53:03.751Z,17.70
2022-10-02T06:55:31.167Z,20.02
2022-10-02T06:58:01.223Z,17.77
2022-10-02T07:00:28.516Z,23.38
2022-10-02T07:02:55.644Z,23.25
2022-10-02T07:05:35.005Z,28.83
2022-10-02T07:08:10.181Z,28.30
2022-10-02T07:10:37.477Z,25.30
2022-10-02T07:13:32.423Z,29.75
2022-10-02T07:16:09.272Z,34.17
2022-10-02T07:18:42.769Z,41.55
2022-10-02T07:21:09.915Z,72.38
2022-10-02T07:23:40.336Z,55.60
2022-10-02T07:26:16.800Z,65.57
2022-10-02T07:29:04.215Z,29.05
2022-10-02T07:31:40.926Z,27.88
2022-10-02T07:34:14.501Z,24.52
2022-10-02T07:39:27.462Z,41.67
2022-10-02T07:42:13.014Z,25.92
2022-10-02T07:45:15.697Z,16.17
2022-10-02T07:47:51.723Z,11.60
2022-10-02T07:50:21.930Z,7.13
2022-10-02T07:53:04.440Z,4.07
2022-10-02T07:55:32.361Z,3.25
2022-10-02T07:58:18.929Z,2.08
2022-10-02T08:00:51.699Z,2.30
2022-10-02T08:03:40.620Z,3.93
2022-10-02T08:06:08.265Z,5.70
2022-10-02T08:08:40.158Z,3.80
2022-10-02T08:11:11.314Z,2.53
2022-10-02T08:13:41.574Z,3.35
2022-10-02T08:16:09.876Z,2.40
2022-10-02T08:18:39.657Z,2.42
2022-10-02T08:21:18.294Z,3.63
2022-10-02T08:23:57.524Z,1.90
2022-10-02T08:26:35.300Z,3.20
2022-10-02T08:29:23.382Z,3.33
2022-10-02T08:31:53.786Z,2.50
2022-10-02T08:34:22.531Z,2.00
2022-10-02T08:37:08.551Z,1.42
2022-10-02T08:39:45.245Z,2.53
2022-10-02T08:42:18.614Z,1.98
2022-10-02T08:45:04.236Z,2.33
2022-10-02T08:47:50.187Z,1.98
2022-10-02T08:50:36.312Z,1.60
2022-10-02T08:53:11.655Z,3.15
2022-10-02T08:55:47.983Z,2.05
2022-10-02T08:58:33.927Z,1.55
2022-10-02T09:01:16.493Z,2.40
2022-10-02T09:03:46.793Z,1.75
2022-10-02T09:06:30.446Z,2.03
2022-10-02T09:09:03.926Z,2.88
2022-10-02T09:11:46.217Z,2.00
2022-10-02T09:14:16.894Z,3.13
2022-10-02T09:16:46.878Z,1.77
2022-10-02T09:19:19.266Z,2.25
2022-10-02T09:21:51.947Z,1.55
2022-10-02T09:24:41.041Z,1.80
2022-10-02T09:27:31.891Z,1.67
2022-10-02T09:30:05.008Z,2.25
2022-10-02T09:32:50.774Z,3.10
2022-10-02T09:35:28.477Z,3.70
2022-10-02T09:38:11.172Z,2.92
2022-10-02T09:40:58.554Z,3.80
2022-10-02T09:43:44.565Z,2.45
2022-10-02T09:46:11.810Z,2.60
2022-10-02T09:48:45.133Z,1.77
2022-10-02T09:51:18.413Z,1.10
2022-10-02T09:53:51.637Z,1.60
2022-10-02T09:56:34.843Z,1.52
2022-10-02T09:59:02.205Z,2.00
2022-10-02T10:01:48.275Z,1.70
2022-10-02T10:04:18.452Z,3.67
2022-10-02T10:07:07.336Z,5.97
2022-10-02T10:09:53.243Z,3.80
2022-10-02T10:12:20.328Z,4.13
2022-10-02T10:14:56.708Z,3.90
2022-10-02T10:17:56.233Z,3.55
2022-10-02T10:20:37.435Z,3.70
2022-10-02T10:23:20.709Z,2.53
2022-10-02T10:25:55.869Z,2.45
2022-10-02T10:28:22.998Z,1.60
2022-10-02T10:31:29.004Z,1.40
2022-10-02T10:34:25.158Z,2.80
2022-10-02T10:37:15.103Z,3.10
2022-10-02T10:40:00.377Z,2.95
2022-10-02T10:43:07.380Z,2.58
2022-10-02T10:45:54.372Z,2.58
2022-10-02T10:48:32.674Z,1.92
2022-10-02T10:51:18.677Z,1.80
2022-10-02T10:54:08.762Z,2.20
2022-10-02T10:56:37.683Z,1.85
2022-10-02T10:59:32.604Z,2.78
2022-10-02T11:02:18.519Z,2.35
2022-10-02T11:04:53.985Z,2.22
2022-10-02T11:07:27.223Z,9.27
2022-10-02T11:10:08.641Z,23.63
2022-10-02T11:12:55.209Z,15.73
2022-10-02T11:15:44.831Z,9.73
2022-10-02T11:18:31.605Z,9.75
2022-10-02T11:21:10.619Z,3.10
2022-10-02T11:23:55.602Z,2.65
2022-10-02T11:26:25.899Z,1.83
2022-10-02T11:28:58.816Z,4.65
2022-10-02T11:31:47.064Z,2.03
2022-10-02T11:34:18.563Z,2.00
2022-10-02T11:36:48.873Z,1.45
2022-10-02T11:39:31.019Z,1.58
2022-10-02T11:42:10.378Z,1.60
2022-10-02T11:45:04.395Z,1.50
2022-10-02T11:47:51.116Z,2.28
2022-10-02T11:50:30.316Z,2.72
2022-10-02T11:53:23.840Z,3.63
2022-10-02T11:56:06.473Z,5.22
2022-10-02T11:58:41.827Z,2.60
2022-10-02T12:01:11.528Z,1.10
2022-10-02T12:04:18.966Z,1.45
2022-10-02T12:06:55.778Z,1.17
2022-10-02T12:09:25.843Z,1.00
2022-10-02T12:12:12.903Z,1.10
2022-10-02T12:14:45.682Z,1.10
2022-10-02T12:17:45.083Z,1.13
2022-10-02T12:20:49.429Z,1.45
2022-10-02T12:23:51.035Z,1.40
2022-10-02T12:26:45.764Z,0.90
2022-10-02T12:29:19.420Z,1.33
2022-10-02T12:34:34.518Z,2.13
2022-10-02T12:37:06.174Z,1.50
2022-10-02T12:39:37.998Z,1.35
2022-10-02T12:42:17.386Z,0.98
2022-10-02T12:44:59.251Z,0.95
2022-10-02T12:47:32.257Z,0.85
2022-10-02T12:50:16.359Z,1.42
2022-10-02T12:53:02.460Z,1.38
2022-10-02T12:55:32.532Z,1.25
2022-10-02T12:58:05.486Z,1.33
2022-10-02T13:01:04.163Z,1.60
2022-10-02T13:03:31.338Z,1.83
2022-10-02T13:06:12.672Z,1.65
2022-10-02T13:08:56.055Z,2.28
2022-10-02T13:11:34.080Z,2.50
2022-10-02T13:14:15.554Z,1.77
2022-10-02T13:16:49.184Z,1.50
2022-10-02T13:21:43.440Z,1.20
2022-10-02T13:24:10.504Z,1.13
2022-10-02T13:26:56.403Z,1.00
2022-10-02T13:29:29.424Z,1.10
2022-10-02T13:32:15.267Z,1.23
2022-10-02T13:35:00.976Z,0.80
2022-10-02T13:37:43.785Z,1.40
2022-10-02T13:40:17.251Z,1.20
2022-10-02T13:43:06.018Z,1.52
2022-10-02T13:45:33.098Z,1.60
2022-10-02T13:48:09.202Z,2.13
2022-10-02T13:50:45.147Z,1.65
2022-10-02T13:53:31.093Z,1.25
2022-10-02T13:56:04.053Z,1.38
2022-10-02T13:58:38.412Z,1.80
2022-10-02T14:01:11.593Z,1.23
2022-10-02T14:03:44.838Z,1.70
2022-10-02T14:06:16.324Z,1.10
2022-10-02T14:09:07.568Z,1.10
2022-10-02T14:11:35.061Z,1.05
2022-10-02T14:14:05.449Z,1.00
2022-10-02T14:16:32.752Z,0.90
2022-10-02T14:19:03.423Z,1.15
2022-10-02T14:21:49.462Z,1.50
2022-10-02T14:24:48.862Z,1.08
2022-10-02T14:27:23.934Z,0.90
2022-10-02T14:30:03.945Z,1.30
2022-10-02T14:32:31.300Z,0.95
2022-10-02T14:35:08.477Z,0.90
2022-10-02T14:37:38.268Z,1.13
2022-10-02T14:40:16.044Z,0.80
2022-10-02T14:43:09.478Z,1.20
2022-10-02T14:45:55.368Z,1.20
2022-10-02T14:48:25.698Z,1.98
2022-10-02T14:51:07.201Z,2.08
2022-10-02T14:53:52.891Z,1.50
2022-10-02T14:56:38.834Z,1.08
2022-10-02T14:59:12.019Z,1.15
2022-10-02T15:01:58.041Z,1.30
2022-10-02T15:04:40.435Z,1.13
2022-10-02T15:07:10.097Z,1.30
2022-10-02T15:09:37.226Z,1.10
2022-10-02T15:12:07.609Z,1.33
2022-10-02T15:14:34.869Z,1.30
2022-10-02T15:17:24.178Z,2.28
2022-10-02T15:20:03.661Z,1.45
2022-10-02T15:22:36.345Z,1.30
2022-10-02T15:25:17.006Z,1.98
2022-10-02T15:27:52.496Z,1.88
2022-10-02T15:30:23.619Z,1.23
2022-10-02T15:33:11.238Z,3.03
2022-10-02T15:36:07.244Z,2.10
2022-10-02T15:38:34.455Z,2.25
2022-10-02T15:41:01.535Z,1.98
2022-10-02T15:43:36.262Z,2.15
2022-10-02T15:46:22.674Z,2.00
2022-10-02T15:48:53.409Z,1.88
2022-10-02T15:51:23.352Z,1.85
2022-10-02T15:54:08.799Z,1.52
2022-10-02T15:56:48.072Z,2.85
2022-10-02T15:59:18.277Z,2.50
2022-10-02T16:02:04.265Z,3.20
2022-10-02T16:04:34.485Z,2.60
2022-10-02T16:07:13.946Z,4.72
2022-10-02T16:09:41.018Z,4.65
2022-10-02T16:12:22.316Z,3.55
2022-10-02T16:14:52.867Z,4.65
2022-10-02T16:17:20.136Z,3.67
2022-10-02T16:19:50.364Z,3.40
2022-10-02T16:22:27.631Z,3.22
2022-10-02T16:24:55.196Z,3.67
2022-10-02T16:27:47.094Z,3.10
2022-10-02T16:30:17.095Z,3.20
2022-10-02T16:32:47.033Z,4.40
2022-10-02T16:35:32.680Z,4.82
2022-10-02T16:38:06.349Z,11.32
2022-10-02T16:43:19.207Z,9.00
2022-10-02T16:46:04.973Z,6.78
2022-10-02T16:48:58.384Z,4.55
2022-10-02T16:51:40.300Z,5.97
2022-10-02T16:54:17.969Z,3.78
2022-10-02T16:56:50.472Z,3.45
2022-10-02T16:59:23.797Z,6.20
2022-10-02T17:02:13.075Z,6.13
2022-10-02T17:04:45.255Z,4.55
2022-10-02T17:07:15.439Z,5.30
2022-10-02T17:09:45.725Z,4.78
2022-10-02T17:12:20.388Z,4.70
2022-10-02T17:14:47.606Z,4.10
2022-10-02T17:17:27.749Z,4.30
2022-10-02T17:20:03.540Z,3.72
2022-10-02T17:22:49.405Z,4.38
2022-10-02T17:25:16.695Z,5.20
2022-10-02T17:27:45.329Z,5.13
2022-10-02T17:30:16.415Z,6.38
2022-10-02T17:32:46.321Z,8.38
2022-10-02T17:35:25.924Z,10.60
2022-10-02T17:38:05.247Z,8.45
2022-10-02T17:40:44.375Z,7.53
2022-10-02T17:43:23.992Z,8.65
2022-10-02T17:46:03.479Z,9.05
2022-10-02T17:48:40.255Z,9.85
2022-10-02T17:51:47.136Z,8.15
2022-10-02T17:54:22.381Z,7.22
2022-10-02T17:56:57.259Z,6.30
2022-10-02T17:59:43.203Z,6.18
2022-10-02T18:02:14.347Z,7.50
2022-10-02T18:04:45.069Z,8.75
2022-10-02T18:07:12.226Z,8.93
2022-10-02T18:09:50.006Z,8.15
2022-10-02T18:12:35.973Z,9.18
2022-10-02T18:15:12.391Z,8.20
2022-10-02T18:17:47.074Z,8.77
2022-10-02T18:20:27.504Z,7.90
2022-10-02T18:23:00.799Z,8.20
2022-10-02T18:25:29.793Z,8.93
2022-10-02T18:28:20.710Z,11.02
2022-10-02T18:31:06.728Z,8.40
2022-10-02T18:33:42.293Z,7.30
2022-10-02T18:36:15.760Z,6.80
2022-10-02T18:38:45.917Z,6.45
2022-10-02T18:41:26.133Z,6.80
2022-10-02T18:43:59.024Z,23.08
2022-10-02T18:46:45.111Z,6.05
2022-10-02T18:49:31.252Z,6.68
2022-10-02T18:52:16.950Z,7.20
2022-10-02T18:54:53.001Z,6.95
2022-10-02T18:57:27.992Z,6.50
2022-10-02T19:00:10.701Z,6.85
2022-10-02T19:02:43.814Z,8.38
2022-10-02T19:05:29.827Z,8.07
2022-10-02T19:08:06.571Z,6.80
2022-10-02T19:10:33.730Z,6.38
2022-10-02T19:13:17.794Z,5.68
2022-10-02T19:15:46.475Z,4.68
2022-10-02T19:18:21.278Z,4.97
2022-10-02T19:20:57.100Z,4.88
2022-10-02T19:23:33.181Z,5.35
2022-10-02T19:26:06.958Z,4.78
2022-10-02T19:28:38.149Z,4.65
2022-10-02T19:31:07.439Z,4.32
2022-10-02T19:33:49.905Z,4.47
2022-10-02T19:36:18.699Z,5.18
2022-10-02T19:38:50.404Z,5.70
2022-10-02T19:41:18.171Z,5.28
2022-10-02T19:43:48.578Z,5.82
2022-10-02T19:46:17.070Z,6.70
2022-10-02T19:48:44.411Z,5.63
2022-10-02T19:51:21.568Z,5.90
2022-10-02T19:53:52.942Z,5.97
2022-10-02T19:56:27.211Z,6.35
2022-10-02T19:58:58.611Z,6.72
2022-10-02T20:01:30.877Z,6.50
2022-10-02T20:04:02.197Z,6.38
2022-10-02T20:06:31.687Z,6.18
2022-10-02T20:09:01.943Z,6.70
2022-10-02T20:11:39.544Z,6.30
2022-10-02T20:14:11.541Z,5.88
2022-10-02T20:16:58.121Z,6.28
2022-10-02T20:19:29.812Z,5.63
2022-10-02T20:21:58.887Z,5.72
2022-10-02T20:24:44.516Z,5.32
2022-10-02T20:27:17.736Z,5.20
2022-10-02T20:29:47.230Z,5.78
2022-10-02T20:32:22.052Z,5.60
2022-10-02T20:34:56.120Z,5.90
2022-10-02T20:37:25.698Z,5.35
2022-10-02T20:40:07.227Z,5.45
2022-10-02T20:42:41.938Z,5.55
2022-10-02T20:45:11.492Z,6.15
2022-10-02T20:48:05.078Z,6.13
2022-10-02T20:50:33.159Z,5.75
2022-10-02T20:53:06.389Z,5.30
2022-10-02T20:55:53.544Z,5.40
2022-10-02T20:58:39.570Z,6.63
2022-10-02T21:01:14.566Z,7.03
2022-10-02T21:03:44.818Z,6.65
2022-10-02T21:06:12.704Z,7.70
2022-10-02T21:08:40.441Z,7.13
2022-10-02T21:11:26.206Z,6.63
2022-10-02T21:14:03.141Z,7.07
2022-10-02T21:16:50.316Z,7.45
2022-10-02T21:19:23.522Z,6.85
2022-10-02T21:22:06.054Z,7.75
2022-10-02T21:24:51.923Z,6.75
2022-10-02T21:27:38.322Z,6.10
2022-10-02T21:30:14.476Z,5.78
2022-10-02T21:32:44.402Z,6.65
2022-10-02T21:35:31.405Z,6.75
2022-10-02T21:38:13.024Z,6.22
2022-10-02T21:40:43.285Z,6.63
2022-10-02T21:43:15.237Z,7.03
2022-10-02T21:45:48.531Z,7.10
2022-10-02T21:48:33.904Z,6.75
2022-10-02T21:51:18.322Z,6.60
2022-10-02T21:54:01.050Z,6.63
2022-10-02T21:56:52.288Z,6.65
2022-10-02T21:59:23.574Z,7.32
2022-10-02T22:02:11.583Z,6.50
2022-10-02T22:04:38.948Z,6.65
2022-10-02T22:07:21.715Z,6.50
2022-10-02T22:10:00.200Z,6.90
2022-10-02T22:12:30.323Z,7.32
2022-10-02T22:15:19.365Z,6.18
2022-10-02T22:17:58.961Z,6.50
2022-10-02T22:20:41.038Z,6.28
2022-10-02T22:23:26.902Z,6.05
2022-10-02T22:25:57.100Z,7.07
2022-10-02T22:28:36.354Z,6.68
2022-10-02T22:31:03.508Z,6.45
2022-10-02T22:33:37.722Z,6.13
2022-10-02T22:36:13.908Z,5.80
2022-10-02T22:38:44.750Z,6.20
2022-10-02T22:41:24.317Z,6.00
2022-10-02T22:43:54.125Z,6.03
2022-10-02T22:46:44.459Z,5.43
2022-10-02T22:49:11.616Z,5.57
2022-10-02T22:51:43.820Z,6.72
2022-10-02T22:54:20.862Z,5.28
2022-10-02T22:56:54.959Z,5.93
2022-10-02T22:59:44.852Z,5.50
2022-10-02T23:02:15.081Z,5.70
2022-10-02T23:04:49.196Z,6.10
2022-10-02T23:07:35.298Z,5.35
2022-10-02T23:10:05.962Z,5.50
2022-10-02T23:12:44.959Z,4.65
2022-10-02T23:15:21.122Z,4.95
2022-10-02T23:17:58.115Z,4.78
2022-10-02T23:20:41.688Z,4.68
2022-10-02T23:23:28.395Z,4.80
2022-10-02T23:26:03.197Z,4.57
2022-10-02T23:28:30.407Z,5.43
2022-10-02T23:31:18.200Z,4.85
2022-10-02T23:33:58.584Z,4.40
2022-10-02T23:36:44.392Z,4.38
2022-10-02T23:39:30.207Z,5.10
2022-10-02T23:41:58.860Z,4.82
2022-10-02T23:44:34.566Z,4.40
2022-10-02T23:47:01.636Z,4.88
2022-10-02T23:49:40.499Z,4.85
2022-10-02T23:52:15.074Z,5.00
2022-10-02T23:55:07.027Z,4.88
2022-10-02T23:57:49.429Z,4.63
